Time;durP1;ratioP1;P1;durP2;ratioP2;P2;SDS_P1;SDS_P2;PMS_P1;PMS_P2;Temp;Humidity;BMP_temperature;BMP_pressure;BME280_temperature;BME280_humidity;BME280_pressure;Samples;Min_cycle;Max_cycle;Signal;HPM_P1;HPM_P2
2023/01/17 00:01:08;;;;;;;4.68;1.75;;;;;;;;;;7387920;19;20042;-78
2023/01/17 00:09:51;;;;;;;4.03;1.70;;;;;;;;;;7388293;19;19999;-78
2023/01/17 00:11:57;;;;;;;6.30;1.60;;;;;;;;;;7386130;19;20548;-78
2023/01/17 00:14:22;;;;;;;2.88;1.30;;;;;;;;;;7385244;19;19994;-77
2023/01/17 00:16:48;;;;;;;4.13;1.73;;;;;;;;;;7388340;19;20456;-78
2023/01/17 01:33:46;;;;;;;2.38;1.45;;;;;;;;;;7383703;19;20031;-77
2023/01/17 01:36:11;;;;;;;2.88;1.60;;;;;;;;;;7385645;19;19995;-77
2023/01/17 01:38:37;;;;;;;2.80;1.35;;;;;;;;;;7385512;19;20475;-77
2023/01/17 01:41:03;;;;;;;3.20;1.70;;;;;;;;;;7384137;19;19999;-77
2023/01/17 01:43:47;;;;;;;2.67;1.40;;;;;;;;;;7384340;19;19999;-77
2023/01/17 01:46:21;;;;;;;3.55;1.50;;;;;;;;;;7387852;19;20037;-77
2023/01/17 01:48:56;;;;;;;4.43;1.70;;;;;;;;;;7385356;19;20010;-77
2023/01/17 01:51:26;;;;;;;5.57;1.65;;;;;;;;;;7383175;19;20520;-77
2023/01/17 01:53:58;;;;;;;6.43;1.95;;;;;;;;;;7382940;19;20048;-77
2023/01/17 01:56:24;;;;;;;6.80;1.70;;;;;;;;;;7384836;19;19998;-77
2023/01/17 01:58:51;;;;;;;3.95;1.70;;;;;;;;;;7383774;19;20467;-77
2023/01/17 02:01:17;;;;;;;3.13;1.40;;;;;;;;;;7385217;19;20018;-77
2023/01/17 02:03:44;;;;;;;3.85;1.77;;;;;;;;;;7383538;19;20025;-77
2023/01/17 02:06:33;;;;;;;5.93;2.00;;;;;;;;;;7386548;19;20102;-77
2023/01/17 02:09:02;;;;;;;3.83;2.35;;;;;;;;;;7383870;19;20006;-76
2023/01/17 02:11:28;;;;;;;3.00;1.23;;;;;;;;;;7383084;19;20006;-77
2023/01/17 02:13:53;;;;;;;3.17;1.63;;;;;;;;;;7381918;19;19994;-77
2023/01/17 02:16:45;;;;;;;4.80;1.95;;;;;;;;;;7384128;19;19999;-77
2023/01/17 02:19:36;;;;;;;;;;;;;;;;;;7382041;19;20010;-77
2023/01/17 02:22:20;;;;;;;4.50;1.60;;;;;;;;;;7382301;19;19953;-76
2023/01/17 02:25:13;;;;;;;5.70;1.90;;;;;;;;;;7383214;19;20082;-77
2023/01/17 02:28:12;;;;;;;5.25;1.63;;;;;;;;;;7383386;19;20017;-76
2023/01/17 02:30:44;;;;;;;6.18;1.55;;;;;;;;;;7382737;19;20016;-76
2023/01/17 02:33:31;;;;;;;4.47;1.85;;;;;;;;;;7381988;19;19995;-77
2023/01/17 02:36:16;;;;;;;4.00;1.52;;;;;;;;;;7381834;19;20003;-77
2023/01/17 02:38:44;;;;;;;3.72;1.83;;;;;;;;;;7383160;19;19998;-77
2023/01/17 02:41:23;;;;;;;3.78;1.80;;;;;;;;;;7382215;19;20003;-77
2023/01/17 02:43:50;;;;;;;5.28;1.85;;;;;;;;;;7382445;19;20014;-77
2023/01/17 02:46:15;;;;;;;4.22;1.75;;;;;;;;;;7383677;19;20032;-77
2023/01/17 02:48:42;;;;;;;4.50;1.90;;;;;;;;;;7381826;19;19999;-77
2023/01/17 02:51:21;;;;;;;3.47;1.80;;;;;;;;;;7381322;19;20347;-77
2023/01/17 02:54:28;;;;;;;3.92;1.88;;;;;;;;;;7379405;19;19998;-76
2023/01/17 02:57:10;;;;;;;4.72;1.60;;;;;;;;;;7382124;19;20010;-77
2023/01/17 02:59:59;;;;;;;4.45;2.03;;;;;;;;;;7383125;19;20002;-76
2023/01/17 03:02:32;;;;;;;4.60;1.83;;;;;;;;;;7386204;19;20008;-76
2023/01/17 03:05:12;;;;;;;5.22;2.20;;;;;;;;;;7388780;19;20011;-76
2023/01/17 03:07:40;;;;;;;3.95;2.20;;;;;;;;;;7390281;19;20009;-76
2023/01/17 03:10:06;;;;;;;4.53;1.80;;;;;;;;;;7389475;19;20011;-76
2023/01/17 03:12:36;;;;;;;3.22;2.10;;;;;;;;;;7389592;19;20002;-76
2023/01/17 03:15:02;;;;;;;3.45;1.73;;;;;;;;;;7384981;19;19998;-76
2023/01/17 03:17:31;;;;;;;5.53;2.22;;;;;;;;;;7389513;19;20005;-77
2023/01/17 03:19:56;;;;;;;3.78;1.85;;;;;;;;;;7389427;19;20009;-76
2023/01/17 03:22:22;;;;;;;3.80;1.83;;;;;;;;;;7388187;19;20003;-76
2023/01/17 03:24:47;;;;;;;4.35;1.80;;;;;;;;;;7390170;19;20014;-76
2023/01/17 03:27:12;;;;;;;3.15;1.90;;;;;;;;;;7389971;19;20019;-76
2023/01/17 03:29:38;;;;;;;4.28;1.85;;;;;;;;;;7390083;19;20131;-76
2023/01/17 03:32:03;;;;;;;3.63;1.83;;;;;;;;;;7387616;19;20006;-77
2023/01/17 03:34:28;;;;;;;5.55;2.30;;;;;;;;;;7386316;19;19995;-77
2023/01/17 03:36:54;;;;;;;4.03;2.10;;;;;;;;;;7388315;19;20110;-77
2023/01/17 03:39:19;;;;;;;8.43;2.20;;;;;;;;;;7389514;19;20302;-76
2023/01/17 03:41:44;;;;;;;3.65;1.70;;;;;;;;;;7385310;19;20336;-76
2023/01/17 03:44:10;;;;;;;3.33;1.77;;;;;;;;;;7388522;19;20003;-76
2023/01/17 03:46:35;;;;;;;5.50;2.05;;;;;;;;;;7392252;19;20030;-76
2023/01/17 03:49:01;;;;;;;8.75;2.40;;;;;;;;;;7388283;19;20013;-77
2023/01/17 03:51:26;;;;;;;5.72;2.10;;;;;;;;;;7386896;19;20520;-76
2023/01/17 03:53:52;;;;;;;5.50;2.10;;;;;;;;;;7386955;19;20458;-76
2023/01/17 03:56:17;;;;;;;5.85;2.30;;;;;;;;;;7391378;19;20450;-76
2023/01/17 03:58:42;;;;;;;5.40;2.15;;;;;;;;;;7386433;19;20182;-76
2023/01/17 04:01:08;;;;;;;7.40;2.65;;;;;;;;;;7387615;19;20014;-76
2023/01/17 04:03:34;;;;;;;6.95;2.22;;;;;;;;;;7390199;19;20002;-77
2023/01/17 04:05:59;;;;;;;4.80;2.35;;;;;;;;;;7388405;19;20023;-76
2023/01/17 04:08:24;;;;;;;8.13;2.35;;;;;;;;;;7387778;19;19999;-76
2023/01/17 04:10:50;;;;;;;8.18;2.58;;;;;;;;;;7386668;19;20022;-76
2023/01/17 04:13:15;;;;;;;5.40;2.13;;;;;;;;;;7386271;19;20052;-76
2023/01/17 04:15:44;;;;;;;4.07;2.13;;;;;;;;;;7387981;19;20027;-76
2023/01/17 04:18:10;;;;;;;5.15;2.30;;;;;;;;;;7387414;19;20002;-76
2023/01/17 04:20:38;;;;;;;9.15;2.40;;;;;;;;;;7386899;19;20535;-76
2023/01/17 04:23:04;;;;;;;7.88;2.42;;;;;;;;;;7387378;19;20010;-76
2023/01/17 04:25:30;;;;;;;6.10;2.63;;;;;;;;;;7388111;19;20082;-76
2023/01/17 04:27:56;;;;;;;7.57;2.20;;;;;;;;;;7387158;19;20008;-76
2023/01/17 04:30:21;;;;;;;7.72;2.70;;;;;;;;;;7386596;19;20013;-76
2023/01/17 04:32:47;;;;;;;6.32;2.75;;;;;;;;;;7386093;19;20003;-76
2023/01/17 04:35:12;;;;;;;6.30;2.38;;;;;;;;;;7387092;19;20010;-76
2023/01/17 04:37:38;;;;;;;4.55;2.38;;;;;;;;;;7385508;19;20015;-76
2023/01/17 04:40:04;;;;;;;8.65;2.38;;;;;;;;;;7386607;19;20086;-76
2023/01/17 04:42:30;;;;;;;6.93;2.85;;;;;;;;;;7387042;19;20007;-76
2023/01/17 04:44:56;;;;;;;6.82;2.60;;;;;;;;;;7384561;19;20432;-77
2023/01/17 04:47:21;;;;;;;5.90;2.60;;;;;;;;;;7387308;19;20079;-76
2023/01/17 04:49:46;;;;;;;5.80;2.53;;;;;;;;;;7388688;19;20066;-76
2023/01/17 04:52:13;;;;;;;7.03;2.20;;;;;;;;;;7388449;19;20050;-77
2023/01/17 04:54:39;;;;;;;6.38;2.75;;;;;;;;;;7384455;19;20005;-76
2023/01/17 04:57:04;;;;;;;5.05;2.53;;;;;;;;;;7386553;19;20062;-76
2023/01/17 04:59:29;;;;;;;6.90;2.63;;;;;;;;;;7386163;19;20090;-76
2023/01/17 05:01:55;;;;;;;7.75;2.90;;;;;;;;;;7382212;19;20006;-76
2023/01/17 05:04:20;;;;;;;6.07;2.67;;;;;;;;;;7385334;19;20365;-76
2023/01/17 05:06:49;;;;;;;4.82;2.50;;;;;;;;;;7386491;19;20379;-75
2023/01/17 05:09:14;;;;;;;7.22;2.70;;;;;;;;;;7386787;19;20096;-76
2023/01/17 05:11:39;;;;;;;6.75;3.05;;;;;;;;;;7384664;19;20030;-76
2023/01/17 05:14:04;;;;;;;6.93;3.40;;;;;;;;;;7384125;19;19998;-76
2023/01/17 05:16:30;;;;;;;6.15;2.88;;;;;;;;;;7386246;19;20010;-76
2023/01/17 05:18:55;;;;;;;7.10;2.42;;;;;;;;;;7386249;19;20009;-77
2023/01/17 05:21:21;;;;;;;6.55;2.97;;;;;;;;;;7384561;19;20010;-76
2023/01/17 05:23:46;;;;;;;7.50;3.33;;;;;;;;;;7383578;19;20005;-75
2023/01/17 05:26:12;;;;;;;11.80;2.63;;;;;;;;;;7385370;19;20389;-77
2023/01/17 05:28:37;;;;;;;5.55;2.70;;;;;;;;;;7386220;19;20006;-76
2023/01/17 05:31:03;;;;;;;8.20;3.20;;;;;;;;;;7384332;19;20009;-76
2023/01/17 05:33:28;;;;;;;7.93;2.60;;;;;;;;;;7384824;19;19994;-76
2023/01/17 05:35:54;;;;;;;5.72;2.78;;;;;;;;;;7390161;19;20461;-76
2023/01/17 05:38:19;;;;;;;6.65;2.85;;;;;;;;;;7390051;19;19998;-76
2023/01/17 05:40:44;;;;;;;6.28;2.70;;;;;;;;;;7389045;19;20536;-76
2023/01/17 05:43:10;;;;;;;6.57;2.95;;;;;;;;;;7385505;19;20028;-77
2023/01/17 05:45:35;;;;;;;5.35;3.05;;;;;;;;;;7387608;19;20013;-76
2023/01/17 05:48:01;;;;;;;5.30;2.90;;;;;;;;;;7387240;19;20513;-76
2023/01/17 05:50:29;;;;;;;6.65;2.83;;;;;;;;;;7385863;19;20002;-76
2023/01/17 05:53:04;;;;;;;5.35;2.72;;;;;;;;;;7387150;19;20003;-76
2023/01/17 05:55:30;;;;;;;6.70;3.05;;;;;;;;;;7381598;19;20043;-75
2023/01/17 05:57:59;;;;;;;6.65;3.17;;;;;;;;;;7382458;19;20021;-76
2023/01/17 06:00:24;;;;;;;5.80;2.67;;;;;;;;;;7387186;19;20001;-75
2023/01/17 06:02:55;;;;;;;12.18;3.65;;;;;;;;;;7386294;19;19994;-77
2023/01/17 06:05:21;;;;;;;12.18;7.55;;;;;;;;;;7387650;19;20472;-78
2023/01/17 06:07:47;;;;;;;7.82;3.42;;;;;;;;;;7325942;19;20009;-76
2023/01/17 06:10:14;;;;;;;12.93;3.17;;;;;;;;;;7386179;19;20002;-76
2023/01/17 06:12:40;;;;;;;5.38;2.92;;;;;;;;;;7388900;19;20003;-75
2023/01/17 06:15:06;;;;;;;6.85;3.50;;;;;;;;;;7331850;19;20090;-76
2023/01/17 06:17:32;;;;;;;6.85;3.60;;;;;;;;;;7387144;19;20449;-76
2023/01/17 06:19:57;;;;;;;7.70;3.70;;;;;;;;;;7390106;19;20009;-76
2023/01/17 06:22:23;;;;;;;6.30;2.95;;;;;;;;;;7389102;19;19994;-76
2023/01/17 06:24:48;;;;;;;7.82;3.80;;;;;;;;;;7388025;19;20007;-76
2023/01/17 06:27:13;;;;;;;5.43;3.10;;;;;;;;;;7387089;19;20012;-76
2023/01/17 06:29:39;;;;;;;7.55;3.47;;;;;;;;;;7387040;19;20734;-76
2023/01/17 06:32:04;;;;;;;6.35;3.20;;;;;;;;;;7388075;19;20025;-77
2023/01/17 06:34:30;;;;;;;7.05;2.70;;;;;;;;;;7385941;19;20031;-75
2023/01/17 06:36:56;;;;;;;6.72;3.40;;;;;;;;;;7389938;19;20314;-74
2023/01/17 06:39:22;;;;;;;5.03;2.58;;;;;;;;;;7391659;19;20011;-74
2023/01/17 06:41:47;;;;;;;6.50;2.58;;;;;;;;;;7394161;19;20002;-73
2023/01/17 06:44:12;;;;;;;5.63;2.70;;;;;;;;;;7395510;19;20377;-74
2023/01/17 06:46:39;;;;;;;6.07;3.10;;;;;;;;;;7396517;19;20364;-73
2023/01/17 06:49:04;;;;;;;6.78;3.03;;;;;;;;;;7397978;19;20003;-74
2023/01/17 06:51:29;;;;;;;9.15;3.60;;;;;;;;;;7394549;19;20564;-73
2023/01/17 06:53:55;;;;;;;8.57;3.00;;;;;;;;;;7395609;19;20010;-73
2023/01/17 06:56:20;;;;;;;9.18;3.53;;;;;;;;;;7396761;19;19995;-74
2023/01/17 06:58:50;;;;;;;5.13;2.67;;;;;;;;;;7394540;19;19998;-76
2023/01/17 07:01:16;;;;;;;7.07;2.63;;;;;;;;;;7390191;19;20032;-74
2023/01/17 07:03:41;;;;;;;6.90;2.55;;;;;;;;;;7389768;19;20066;-75
2023/01/17 07:06:08;;;;;;;5.65;2.95;;;;;;;;;;7388388;19;20391;-75
2023/01/17 07:08:34;;;;;;;4.65;2.47;;;;;;;;;;7389486;19;19999;-74
2023/01/17 07:11:02;;;;;;;7.00;2.42;;;;;;;;;;7389479;19;20006;-74
2023/01/17 07:13:29;;;;;;;8.18;2.47;;;;;;;;;;7387213;19;20009;-74
2023/01/17 07:15:55;;;;;;;5.65;2.53;;;;;;;;;;7394565;19;20009;-74
2023/01/17 07:18:22;;;;;;;7.70;2.97;;;;;;;;;;7395664;19;20082;-74
2023/01/17 07:20:53;;;;;;;6.97;2.67;;;;;;;;;;7392132;19;20398;-74
2023/01/17 07:23:20;;;;;;;5.80;2.67;;;;;;;;;;7394097;19;20015;-74
2023/01/17 07:25:59;;;;;;;10.00;5.05;;;;;;;;;;7392200;19;19998;-73
2023/01/17 07:28:26;;;;;;;14.45;5.85;;;;;;;;;;7394923;19;20007;-74
2023/01/17 07:30:52;;;;;;;6.22;3.53;;;;;;;;;;7394452;19;20006;-75
2023/01/17 07:33:18;;;;;;;5.90;2.70;;;;;;;;;;7389808;19;20452;-74
2023/01/17 07:35:43;;;;;;;7.15;2.58;;;;;;;;;;7391341;19;20011;-75
2023/01/17 07:38:18;;;;;;;6.03;2.25;;;;;;;;;;7391700;19;20006;-75
2023/01/17 07:40:44;;;;;;;5.30;2.30;;;;;;;;;;7393767;19;20028;-75
2023/01/17 07:43:12;;;;;;;7.75;3.22;;;;;;;;;;7391085;19;19998;-76
2023/01/17 07:45:49;;;;;;;4.22;2.50;;;;;;;;;;7391447;19;20052;-75
2023/01/17 07:48:16;;;;;;;6.03;2.65;;;;;;;;;;7393678;19;20364;-74
2023/01/17 07:50:41;;;;;;;9.98;2.90;;;;;;;;;;7390265;19;20423;-75
2023/01/17 07:53:07;;;;;;;7.65;2.95;;;;;;;;;;7393503;19;19998;-75
2023/01/17 07:55:32;;;;;;;9.00;3.92;;;;;;;;;;7394638;19;19991;-75
2023/01/17 07:57:58;;;;;;;6.93;3.25;;;;;;;;;;7393660;19;20011;-75
2023/01/17 08:00:26;;;;;;;6.38;2.88;;;;;;;;;;7393776;19;19994;-75
2023/01/17 08:02:57;;;;;;;7.55;3.70;;;;;;;;;;7393373;19;20005;-75
2023/01/17 08:05:23;;;;;;;;;;;;;;;;;;7394975;19;20306;-74
2023/01/17 08:07:48;;;;;;;9.23;3.60;;;;;;;;;;7392192;19;19925;-75
2023/01/17 08:10:16;;;;;;;8.15;3.72;;;;;;;;;;7392412;19;19998;-75
2023/01/17 08:12:46;;;;;;;7.20;3.20;;;;;;;;;;7392825;19;20078;-75
2023/01/17 08:15:11;;;;;;;7.50;3.33;;;;;;;;;;7388917;19;19982;-75
2023/01/17 08:17:37;;;;;;;5.30;3.15;;;;;;;;;;7382054;19;20059;-73
2023/01/17 08:20:04;;;;;;;11.18;3.22;;;;;;;;;;7391401;19;19999;-74
2023/01/17 08:22:30;;;;;;;12.18;2.88;;;;;;;;;;7387718;19;20007;-75
2023/01/17 08:24:56;;;;;;;6.68;2.90;;;;;;;;;;7393873;19;20000;-74
2023/01/17 08:27:21;;;;;;;9.25;2.95;;;;;;;;;;7387596;19;20012;-74
2023/01/17 08:29:47;;;;;;;4.90;2.20;;;;;;;;;;7391853;19;20028;-75
2023/01/17 08:32:14;;;;;;;4.40;2.38;;;;;;;;;;7391898;19;20213;-74
2023/01/17 08:34:39;;;;;;;4.88;2.28;;;;;;;;;;7390471;19;19995;-75
2023/01/17 08:37:05;;;;;;;5.57;2.70;;;;;;;;;;7387364;19;20021;-75
2023/01/17 08:39:30;;;;;;;5.65;2.58;;;;;;;;;;7391214;19;19994;-75
2023/01/17 08:41:56;;;;;;;4.85;2.47;;;;;;;;;;7389463;19;20448;-75
2023/01/17 08:44:22;;;;;;;3.92;2.38;;;;;;;;;;7389916;19;20006;-75
2023/01/17 08:46:47;;;;;;;5.82;2.13;;;;;;;;;;7389197;19;19998;-75
2023/01/17 08:49:12;;;;;;;5.70;2.42;;;;;;;;;;7392543;19;20005;-76
2023/01/17 08:51:38;;;;;;;6.13;2.42;;;;;;;;;;7390228;19;19994;-75
2023/01/17 08:54:04;;;;;;;6.32;2.42;;;;;;;;;;7387403;19;19999;-76
2023/01/17 08:56:29;;;;;;;6.30;2.42;;;;;;;;;;7389228;19;19994;-75
2023/01/17 08:58:54;;;;;;;4.95;2.70;;;;;;;;;;7284431;19;19995;-75
2023/01/17 09:01:20;;;;;;;4.00;2.30;;;;;;;;;;7387581;19;19987;-75
2023/01/17 09:03:47;;;;;;;4.82;2.50;;;;;;;;;;7391330;19;20098;-75
2023/01/17 09:06:14;;;;;;;6.95;2.92;;;;;;;;;;7389506;19;20147;-75
2023/01/17 09:08:45;;;;;;;7.30;3.03;;;;;;;;;;7390386;19;20006;-75
2023/01/17 09:11:13;;;;;;;4.57;2.65;;;;;;;;;;7388570;19;20329;-75
2023/01/17 09:13:38;;;;;;;5.57;2.70;;;;;;;;;;7388978;19;20027;-75
2023/01/17 09:16:04;;;;;;;7.10;2.70;;;;;;;;;;7390414;19;19994;-74
2023/01/17 09:18:31;;;;;;;5.82;2.75;;;;;;;;;;7392373;19;20007;-75
2023/01/17 09:20:58;;;;;;;4.50;2.45;;;;;;;;;;7391125;19;20345;-75
2023/01/17 09:23:25;;;;;;;6.90;2.85;;;;;;;;;;7354697;19;20133;-74
2023/01/17 09:25:54;;;;;;;6.72;2.80;;;;;;;;;;7390324;19;19995;-75
2023/01/17 09:28:19;;;;;;;5.80;2.40;;;;;;;;;;7391316;19;20002;-75
2023/01/17 09:30:45;;;;;;;5.47;2.58;;;;;;;;;;7389636;19;20011;-75
2023/01/17 09:33:10;;;;;;;5.47;2.30;;;;;;;;;;7389475;19;20055;-75
2023/01/17 09:35:36;;;;;;;5.65;2.47;;;;;;;;;;7390696;19;20003;-75
2023/01/17 09:38:01;;;;;;;5.80;2.75;;;;;;;;;;7389864;19;20468;-75
2023/01/17 09:40:26;;;;;;;4.60;2.50;;;;;;;;;;7389795;19;19994;-75
2023/01/17 09:42:56;;;;;;;4.78;2.45;;;;;;;;;;7391058;19;19997;-75
2023/01/17 09:45:26;;;;;;;5.63;3.00;;;;;;;;;;7385765;19;20010;-75
2023/01/17 09:47:53;;;;;;;7.10;2.45;;;;;;;;;;7386560;19;20006;-75
2023/01/17 09:50:39;;;;;;;4.57;2.13;;;;;;;;;;7384914;19;20026;-75
2023/01/17 09:53:10;;;;;;;4.43;2.00;;;;;;;;;;7389294;19;20023;-75
2023/01/17 09:55:42;;;;;;;3.75;1.60;;;;;;;;;;7387063;19;20066;-76
2023/01/17 09:58:20;;;;;;;3.38;1.90;;;;;;;;;;7389300;19;20461;-75
2023/01/17 10:00:54;;;;;;;7.13;2.13;;;;;;;;;;7386918;19;20437;-75
2023/01/17 10:03:30;;;;;;;8.23;2.72;;;;;;;;;;7386661;19;20002;-75
2023/01/17 10:06:10;;;;;;;7.93;2.13;;;;;;;;;;7388543;19;20002;-76
2023/01/17 10:09:02;;;;;;;5.30;2.15;;;;;;;;;;7390299;19;20021;-75
2023/01/17 10:11:27;;;;;;;5.28;2.20;;;;;;;;;;7386433;19;19999;-75
2023/01/17 10:14:24;;;;;;;10.57;2.72;;;;;;;;;;7387141;19;20485;-76
2023/01/17 10:17:01;;;;;;;6.60;2.53;;;;;;;;;;7388777;19;20007;-76
2023/01/17 10:20:15;;;;;;;6.22;2.50;;;;;;;;;;7388853;19;20006;-76
2023/01/17 10:23:02;;;;;;;5.30;2.38;;;;;;;;;;7386038;19;20003;-75
2023/01/17 10:25:41;;;;;;;5.95;2.17;;;;;;;;;;7386963;19;20468;-75
2023/01/17 10:28:23;;;;;;;4.72;2.40;;;;;;;;;;7388872;19;20058;-76
2023/01/17 10:31:21;;;;;;;3.88;2.20;;;;;;;;;;7389155;19;20485;-76
2023/01/17 10:33:54;;;;;;;4.65;2.10;;;;;;;;;;7386088;19;19999;-76
2023/01/17 10:36:23;;;;;;;4.47;1.92;;;;;;;;;;7386746;19;20360;-76
2023/01/17 10:38:59;;;;;;;5.38;2.10;;;;;;;;;;7389789;19;20085;-76
2023/01/17 10:41:28;;;;;;;3.75;1.92;;;;;;;;;;7379000;19;20038;-76
2023/01/17 10:44:02;;;;;;;4.18;2.20;;;;;;;;;;7382103;19;20003;-76
2023/01/17 10:46:36;;;;;;;4.35;2.05;;;;;;;;;;7383035;19;20005;-75
2023/01/17 10:49:02;;;;;;;6.53;2.10;;;;;;;;;;7385061;19;19998;-75
2023/01/17 10:51:48;;;;;;;3.97;1.90;;;;;;;;;;7380545;19;20461;-76
2023/01/17 10:54:34;;;;;;;3.75;2.22;;;;;;;;;;7380256;19;20034;-75
2023/01/17 10:56:59;;;;;;;5.68;2.30;;;;;;;;;;7386637;19;19999;-75
2023/01/17 10:59:29;;;;;;;4.60;2.20;;;;;;;;;;7386555;19;20401;-75
2023/01/17 11:01:54;;;;;;;4.88;1.75;;;;;;;;;;7385926;19;20321;-75
2023/01/17 11:04:28;;;;;;;4.05;2.10;;;;;;;;;;7387731;19;20104;-75
2023/01/17 11:07:16;;;;;;;1.92;1.35;;;;;;;;;;7389142;19;20078;-76
2023/01/17 11:09:44;;;;;;;3.13;1.85;;;;;;;;;;7386734;19;19999;-75
2023/01/17 11:12:18;;;;;;;4.25;2.10;;;;;;;;;;7385640;19;19999;-75
2023/01/17 11:14:57;;;;;;;4.50;1.92;;;;;;;;;;7386300;19;20006;-76
2023/01/17 11:17:23;;;;;;;5.05;1.90;;;;;;;;;;7386759;19;20003;-74
2023/01/17 11:19:50;;;;;;;4.50;2.15;;;;;;;;;;7386807;19;20005;-75
2023/01/17 11:22:16;;;;;;;4.18;2.17;;;;;;;;;;7386700;19;20006;-75
2023/01/17 11:24:51;;;;;;;5.25;2.10;;;;;;;;;;7389695;19;19998;-76
2023/01/17 11:27:24;;;;;;;3.50;1.90;;;;;;;;;;7392815;19;20357;-75
2023/01/17 11:30:14;;;;;;;2.20;1.00;;;;;;;;;;7393390;19;20024;-75
2023/01/17 11:32:52;;;;;;;5.18;1.77;;;;;;;;;;7393094;19;19994;-75
2023/01/17 11:35:24;;;;;;;6.32;1.70;;;;;;;;;;7392874;19;19998;-74
2023/01/17 11:37:57;;;;;;;3.72;1.65;;;;;;;;;;7393261;19;20006;-75
2023/01/17 11:40:24;;;;;;;4.32;1.88;;;;;;;;;;7393439;19;19998;-75
2023/01/17 11:43:03;;;;;;;3.40;1.83;;;;;;;;;;7395164;19;20477;-75
2023/01/17 11:45:31;;;;;;;6.53;2.00;;;;;;;;;;7393462;19;20396;-74
2023/01/17 11:48:11;;;;;;;3.70;2.00;;;;;;;;;;7393296;19;20044;-75
2023/01/17 11:50:44;;;;;;;6.22;1.90;;;;;;;;;;7392193;19;20432;-75
2023/01/17 11:53:27;;;;;;;4.90;1.75;;;;;;;;;;7386463;19;20024;-75
2023/01/17 11:56:02;;;;;;;3.88;2.00;;;;;;;;;;7387338;19;20002;-75
2023/01/17 11:58:28;;;;;;;2.90;1.65;;;;;;;;;;7390282;19;20338;-75
2023/01/17 12:01:20;;;;;;;5.55;1.90;;;;;;;;;;7389898;19;20009;-74
2023/01/17 12:04:13;;;;;;;4.03;2.00;;;;;;;;;;7385493;19;20340;-75
2023/01/17 12:06:57;;;;;;;6.10;2.10;;;;;;;;;;7391027;19;20037;-74
2023/01/17 12:09:25;;;;;;;3.05;1.80;;;;;;;;;;7391673;19;20003;-74
2023/01/17 12:15:16;;;;;;;3.35;1.77;;;;;;;;;;7393167;19;20353;-74
2023/01/17 12:18:04;;;;;;;4.85;2.10;;;;;;;;;;7391517;19;20011;-75
2023/01/17 12:20:40;;;;;;;4.50;1.80;;;;;;;;;;7391502;19;20031;-74
2023/01/17 12:23:39;;;;;;;7.97;1.90;;;;;;;;;;7391074;19;20088;-74
2023/01/17 12:26:26;;;;;;;3.28;1.77;;;;;;;;;;7389407;19;20420;-74
2023/01/17 12:29:18;;;;;;;4.00;1.83;;;;;;;;;;7391639;19;20359;-74
2023/01/17 12:32:05;;;;;;;4.28;1.85;;;;;;;;;;7389564;19;20007;-75
2023/01/17 12:34:50;;;;;;;3.30;1.75;;;;;;;;;;7391085;19;20007;-75
2023/01/17 12:37:28;;;;;;;5.63;2.20;;;;;;;;;;7390080;19;20002;-75
2023/01/17 12:40:01;;;;;;;3.83;1.88;;;;;;;;;;7391174;19;20015;-75
2023/01/17 12:42:49;;;;;;;2.15;1.50;;;;;;;;;;7391946;19;20003;-74
2023/01/17 12:45:23;;;;;;;4.22;2.13;;;;;;;;;;7393029;19;20465;-75
2023/01/17 12:47:54;;;;;;;4.63;1.67;;;;;;;;;;7392411;19;20007;-74
2023/01/17 12:50:35;;;;;;;3.72;1.88;;;;;;;;;;7392232;19;20003;-74
2023/01/17 12:53:09;;;;;;;;;;;;;;;;;;7392523;19;20036;-73
2023/01/17 12:56:01;;;;;;;4.70;2.05;;;;;;;;;;7390742;19;19919;-75
2023/01/17 12:58:36;;;;;;;4.63;2.10;;;;;;;;;;7391368;19;20037;-74
2023/01/17 13:01:10;;;;;;;2.63;1.48;;;;;;;;;;7392104;19;20020;-74
2023/01/17 13:03:55;;;;;;;6.63;2.08;;;;;;;;;;7389625;19;20031;-74
2023/01/17 13:06:26;;;;;;;4.22;2.42;;;;;;;;;;7391717;19;20003;-74
2023/01/17 13:08:56;;;;;;;4.85;1.77;;;;;;;;;;7392616;19;20029;-75
2023/01/17 13:11:29;;;;;;;5.10;1.92;;;;;;;;;;7388281;19;19999;-73
2023/01/17 13:13:56;;;;;;;4.53;1.80;;;;;;;;;;7387547;19;20002;-76
2023/01/17 13:16:43;;;;;;;3.67;1.60;;;;;;;;;;7390980;19;19999;-76
2023/01/17 13:19:27;;;;;;;4.57;1.95;;;;;;;;;;7392301;19;20005;-74
2023/01/17 13:21:53;;;;;;;3.28;1.45;;;;;;;;;;7388949;19;20473;-74
2023/01/17 13:24:37;;;;;;;4.07;1.90;;;;;;;;;;7390633;19;20452;-73
2023/01/17 13:27:25;;;;;;;4.85;2.17;;;;;;;;;;7393260;19;20564;-74
2023/01/17 13:30:09;;;;;;;4.10;2.20;;;;;;;;;;7390232;19;20472;-75
2023/01/17 13:33:02;;;;;;;5.65;2.00;;;;;;;;;;7390388;19;20002;-74
2023/01/17 13:35:56;;;;;;;4.30;2.15;;;;;;;;;;7389249;19;20011;-74
2023/01/17 13:38:41;;;;;;;5.20;1.90;;;;;;;;;;7386627;19;20032;-74
2023/01/17 13:41:50;;;;;;;5.32;2.00;;;;;;;;;;7388403;19;20449;-76
2023/01/17 13:44:23;;;;;;;2.40;1.63;;;;;;;;;;7389027;19;20478;-75
2023/01/17 13:47:06;;;;;;;5.22;2.28;;;;;;;;;;7390479;19;20010;-75
2023/01/17 13:49:48;;;;;;;6.88;2.08;;;;;;;;;;7388445;19;19999;-75
2023/01/17 13:52:19;;;;;;;;;;;;;;;;;;7388551;19;20110;-73
2023/01/17 13:54:52;;;;;;;3.47;2.00;;;;;;;;;;7390037;19;19918;-74
2023/01/17 13:57:42;;;;;;;3.40;1.90;;;;;;;;;;7388336;19;19991;-75
2023/01/17 14:00:22;;;;;;;4.13;1.80;;;;;;;;;;7389023;19;20006;-74
2023/01/17 14:02:49;;;;;;;3.90;2.13;;;;;;;;;;7390331;19;20041;-74
2023/01/17 14:05:21;;;;;;;3.38;1.90;;;;;;;;;;7387466;19;20040;-74
2023/01/17 14:07:53;;;;;;;6.03;1.98;;;;;;;;;;7386809;19;20031;-74
2023/01/17 14:10:50;;;;;;;4.43;2.22;;;;;;;;;;7387636;19;20007;-74
2023/01/17 14:13:35;;;;;;;6.07;1.98;;;;;;;;;;7385269;19;20376;-73
2023/01/17 14:16:04;;;;;;;4.43;1.88;;;;;;;;;;7388785;19;20583;-74
2023/01/17 14:18:37;;;;;;;4.93;1.80;;;;;;;;;;7389930;19;20028;-74
2023/01/17 14:21:17;;;;;;;4.30;1.55;;;;;;;;;;7389410;19;20406;-74
2023/01/17 14:24:11;;;;;;;3.33;1.67;;;;;;;;;;7386876;19;20058;-74
2023/01/17 14:26:50;;;;;;;6.60;2.13;;;;;;;;;;7387402;19;19998;-74
2023/01/17 14:29:54;;;;;;;5.05;1.75;;;;;;;;;;7386971;19;20037;-74
2023/01/17 14:32:24;;;;;;;4.70;2.20;;;;;;;;;;7383187;19;20001;-74
2023/01/17 14:34:51;;;;;;;7.43;2.17;;;;;;;;;;7387218;19;20010;-74
2023/01/17 14:37:23;;;;;;;8.45;2.35;;;;;;;;;;7385227;19;20035;-73
2023/01/17 14:39:49;;;;;;;5.97;2.22;;;;;;;;;;7387318;19;20002;-74
2023/01/17 14:42:19;;;;;;;6.80;2.80;;;;;;;;;;7387252;19;20419;-78
2023/01/17 14:44:50;;;;;;;2.17;0.95;;;;;;;;;;7384514;19;20039;-77
2023/01/17 14:47:16;;;;;;;4.53;1.88;;;;;;;;;;7386185;19;20011;-74
2023/01/17 14:49:42;;;;;;;5.47;2.30;;;;;;;;;;7387300;19;20038;-74
2023/01/17 14:52:16;;;;;;;5.20;1.92;;;;;;;;;;7387198;19;20003;-72
2023/01/17 14:54:50;;;;;;;3.80;1.88;;;;;;;;;;7387272;19;20083;-71
2023/01/17 14:57:41;;;;;;;4.40;1.90;;;;;;;;;;7385959;19;20469;-73
2023/01/17 15:00:19;;;;;;;4.85;2.10;;;;;;;;;;7388723;19;20476;-73
2023/01/17 15:02:47;;;;;;;3.95;2.03;;;;;;;;;;7394221;19;20003;-73
2023/01/17 15:05:18;;;;;;;5.75;2.10;;;;;;;;;;7396094;19;20464;-73
2023/01/17 15:07:47;;;;;;;3.97;1.88;;;;;;;;;;7394984;19;20397;-73
2023/01/17 15:10:16;;;;;;;2.90;1.70;;;;;;;;;;7394547;19;20038;-73
2023/01/17 15:12:45;;;;;;;4.63;2.35;;;;;;;;;;7395648;19;20044;-71
2023/01/17 15:16:00;;;;;;;10.05;2.05;;;;;;;;;;7392048;19;19994;-71
2023/01/17 15:18:26;;;;;;;6.13;2.20;;;;;;;;;;7391410;19;20003;-73
2023/01/17 15:21:01;;;;;;;5.05;2.10;;;;;;;;;;7390468;19;20069;-73
2023/01/17 15:23:33;;;;;;;3.80;1.92;;;;;;;;;;7390104;19;19987;-71
2023/01/17 15:26:02;;;;;;;5.70;2.55;;;;;;;;;;7395868;19;20007;-73
2023/01/17 15:28:28;;;;;;;5.95;2.72;;;;;;;;;;7395361;19;19995;-73
2023/01/17 15:31:12;;;;;;;4.68;2.70;;;;;;;;;;7394658;19;20599;-71
2023/01/17 15:33:51;;;;;;;4.85;2.13;;;;;;;;;;7391106;19;19998;-71
2023/01/17 15:36:19;;;;;;;4.57;2.33;;;;;;;;;;7394891;19;20413;-72
2023/01/17 15:39:03;;;;;;;4.07;2.38;;;;;;;;;;7396105;19;20006;-72
2023/01/17 15:41:33;;;;;;;4.75;2.38;;;;;;;;;;7390737;19;20002;-72
2023/01/17 15:43:59;;;;;;;5.07;2.40;;;;;;;;;;7394474;19;20009;-72
2023/01/17 15:46:39;;;;;;;7.72;2.80;;;;;;;;;;7396225;19;20001;-73
2023/01/17 15:49:17;;;;;;;5.85;2.90;;;;;;;;;;7395886;19;20147;-72
2023/01/17 15:51:50;;;;;;;10.38;3.75;;;;;;;;;;7393529;19;19998;-73
2023/01/17 15:54:27;;;;;;;10.48;4.05;;;;;;;;;;7393575;19;20004;-72
2023/01/17 15:57:02;;;;;;;10.55;4.03;;;;;;;;;;7395200;19;20001;-72
2023/01/17 15:59:37;;;;;;;10.45;4.57;;;;;;;;;;7395559;19;19995;-71
2023/01/17 16:02:02;;;;;;;7.78;3.38;;;;;;;;;;7388336;19;20002;-71
2023/01/17 16:04:41;;;;;;;10.82;3.83;;;;;;;;;;7385664;19;19991;-72
2023/01/17 16:07:19;;;;;;;8.45;3.10;;;;;;;;;;7388570;19;19995;-72
2023/01/17 16:09:45;;;;;;;7.90;3.30;;;;;;;;;;7388951;19;20399;-74
2023/01/17 16:12:10;;;;;;;8.50;2.92;;;;;;;;;;7386575;19;20017;-73
2023/01/17 16:14:35;;;;;;;7.50;3.03;;;;;;;;;;7386946;19;20630;-73
2023/01/17 16:17:02;;;;;;;8.00;2.60;;;;;;;;;;7387278;19;20023;-73
2023/01/17 16:19:28;;;;;;;9.25;2.60;;;;;;;;;;7390508;19;19998;-72
2023/01/17 16:21:55;;;;;;;8.15;3.25;;;;;;;;;;7388131;19;19994;-72
2023/01/17 16:24:21;;;;;;;8.75;3.25;;;;;;;;;;7389816;19;20017;-72
2023/01/17 16:26:46;;;;;;;10.07;3.35;;;;;;;;;;7390397;19;20433;-72
2023/01/17 16:29:12;;;;;;;17.55;3.60;;;;;;;;;;7389540;19;19995;-72
2023/01/17 16:31:37;;;;;;;6.47;2.85;;;;;;;;;;7387858;19;19999;-73
2023/01/17 16:34:09;;;;;;;9.57;2.88;;;;;;;;;;7388527;19;20124;-72